createdAt,value
2022-09-15T00:00:22.686Z,50.866753
2022-09-15T00:01:22.701Z,50.866756
2022-09-15T00:02:22.848Z,50.866833
2022-09-15T00:03:22.667Z,50.866859
2022-09-15T00:04:22.637Z,50.866764
2022-09-15T00:05:22.632Z,50.866764
2022-09-15T00:06:22.622Z,50.866806
2022-09-15T00:07:22.611Z,50.866867
2022-09-15T00:08:22.613Z,50.866833
2022-09-15T00:09:22.596Z,50.866707
2022-09-15T00:10:22.589Z,50.866837
2022-09-15T00:11:22.591Z,50.866779
2022-09-15T00:12:22.572Z,50.866806
2022-09-15T00:13:22.561Z,50.866821
2022-09-15T00:14:22.567Z,50.866737
2022-09-15T00:15:22.548Z,50.866737
2022-09-15T00:16:22.577Z,50.866749
2022-09-15T00:17:22.546Z,50.866737
2022-09-15T00:18:22.526Z,50.866680
2022-09-15T00:19:22.527Z,50.866688
2022-09-15T00:20:22.514Z,50.866699
2022-09-15T00:21:22.504Z,50.866737
2022-09-15T00:22:22.504Z,50.866745
2022-09-15T00:23:22.490Z,50.866718
2022-09-15T00:24:22.487Z,50.866730
2022-09-15T00:25:22.470Z,50.866718
2022-09-15T00:26:22.467Z,50.866734
2022-09-15T00:27:22.455Z,50.866695
2022-09-15T00:28:22.453Z,50.866692
2022-09-15T00:29:22.451Z,50.866741
2022-09-15T00:35:23.518Z,50.866714
2022-09-15T00:36:23.445Z,50.866783
2022-09-15T00:37:23.432Z,50.866756
2022-09-15T00:38:23.418Z,50.866753
2022-09-15T00:39:23.414Z,50.866783
2022-09-15T00:40:23.465Z,50.866936
2022-09-15T00:41:23.392Z,50.866833
2022-09-15T00:42:23.385Z,50.866856
2022-09-15T00:43:23.373Z,50.866837
2022-09-15T00:44:23.372Z,50.866917
2022-09-15T00:45:23.496Z,50.866795
2022-09-15T00:46:23.351Z,50.866787
2022-09-15T00:47:23.351Z,50.866760
2022-09-15T00:48:23.339Z,50.866848
2022-09-15T00:49:23.369Z,50.866848
2022-09-15T00:50:23.320Z,50.866821
2022-09-15T00:51:23.316Z,50.866867
2022-09-15T00:52:23.314Z,50.866932
2022-09-15T00:53:23.297Z,50.866776
2022-09-15T00:54:23.288Z,50.866798
2022-09-15T00:55:23.291Z,50.866867
2022-09-15T00:56:23.284Z,50.866852
2022-09-15T00:57:23.269Z,50.866879
2022-09-15T00:58:23.262Z,50.866879
2022-09-15T00:59:23.252Z,50.866825
2022-09-15T01:00:23.250Z,50.866787
2022-09-15T01:01:23.288Z,50.866730
2022-09-15T01:02:23.291Z,50.866764
2022-09-15T01:03:23.218Z,50.866768
2022-09-15T01:04:23.217Z,50.866764
2022-09-15T01:05:23.202Z,50.866749
2022-09-15T01:06:23.211Z,50.866764
2022-09-15T01:07:23.195Z,50.866776
2022-09-15T01:08:23.183Z,50.866776
2022-09-15T01:09:23.173Z,50.866817
2022-09-15T01:10:23.167Z,50.866844
2022-09-15T01:11:23.156Z,50.866829
2022-09-15T01:12:23.150Z,50.866783
2022-09-15T01:13:23.140Z,50.866722
2022-09-15T01:14:23.135Z,50.866760
2022-09-15T01:15:23.128Z,50.866749
2022-09-15T01:16:23.137Z,50.866657
2022-09-15T01:17:23.105Z,50.866760
2022-09-15T01:18:23.101Z,50.866806
2022-09-15T01:19:23.088Z,50.866810
2022-09-15T01:20:23.080Z,50.866817
2022-09-15T01:21:23.088Z,50.866768
2022-09-15T01:22:23.064Z,50.866779
2022-09-15T01:23:23.067Z,50.866821
2022-09-15T01:24:23.052Z,50.866810
2022-09-15T01:25:23.036Z,50.866768
2022-09-15T01:26:23.033Z,50.866772
2022-09-15T01:27:41.160Z,50.866760
2022-09-15T01:28:25.016Z,50.866779
2022-09-15T01:29:23.017Z,50.866776
2022-09-15T01:30:23.002Z,50.866753
2022-09-15T01:31:23.594Z,50.866783
2022-09-15T01:32:22.994Z,50.866783
2022-09-15T01:33:22.981Z,50.866825
2022-09-15T01:34:22.980Z,50.866810
2022-09-15T01:35:22.966Z,50.866783
2022-09-15T01:36:22.959Z,50.866749
2022-09-15T01:37:22.946Z,50.866764
2022-09-15T01:38:22.947Z,50.866737
2022-09-15T01:39:22.933Z,50.866802
2022-09-15T01:40:23.023Z,50.866856
2022-09-15T01:41:22.914Z,50.866844
2022-09-15T01:42:22.906Z,50.866829
2022-09-15T01:43:22.891Z,50.866852
2022-09-15T01:44:22.886Z,50.866852
2022-09-15T01:45:22.941Z,50.866890
2022-09-15T01:46:22.874Z,50.866844
2022-09-15T01:47:22.863Z,50.866909
2022-09-15T01:48:22.857Z,50.867085
2022-09-15T01:49:22.857Z,50.866898
2022-09-15T01:50:22.854Z,50.866795
2022-09-15T01:51:22.834Z,50.866817
2022-09-15T01:52:22.825Z,50.866821
2022-09-15T01:53:22.829Z,50.866894
2022-09-15T01:54:22.836Z,50.866882
2022-09-15T01:55:22.801Z,50.866901
2022-09-15T01:56:22.797Z,50.866779
2022-09-15T01:57:22.787Z,50.866787
2022-09-15T01:58:22.792Z,50.866787
2022-09-15T01:59:22.772Z,50.866768
2022-09-15T02:00:22.773Z,50.866875
2022-09-15T02:01:22.836Z,50.866890
2022-09-15T02:02:22.864Z,50.866787
2022-09-15T02:03:22.747Z,50.866875
2022-09-15T02:04:22.746Z,50.866749
2022-09-15T02:05:22.727Z,50.866711
2022-09-15T02:06:22.721Z,50.866623
2022-09-15T02:07:22.718Z,50.866795
2022-09-15T02:08:22.704Z,50.866753
2022-09-15T02:09:22.696Z,50.866840
2022-09-15T02:10:22.690Z,50.866726
2022-09-15T02:11:22.684Z,50.866817
2022-09-15T02:12:22.677Z,50.866760
2022-09-15T02:13:22.666Z,50.866768
2022-09-15T02:14:22.654Z,50.866730
2022-09-15T02:15:22.646Z,50.866798
2022-09-15T02:16:22.712Z,50.866776
2022-09-15T02:17:22.642Z,50.866714
2022-09-15T02:18:22.640Z,50.866753
2022-09-15T02:19:22.623Z,50.866798
2022-09-15T02:20:22.616Z,50.866798
2022-09-15T02:21:22.603Z,50.866806
2022-09-15T02:22:22.611Z,50.866791
2022-09-15T02:23:22.583Z,50.866787
2022-09-15T02:24:22.572Z,50.866749
2022-09-15T02:25:22.604Z,50.866772
2022-09-15T02:26:22.557Z,50.866741
2022-09-15T02:27:22.565Z,50.866711
2022-09-15T02:28:22.552Z,50.866638
2022-09-15T02:29:22.542Z,50.866737
2022-09-15T02:30:22.525Z,50.866737
2022-09-15T02:31:22.574Z,50.866684
2022-09-15T02:32:22.517Z,50.866653
2022-09-15T02:33:22.503Z,50.866600
2022-09-15T02:34:22.492Z,50.866604
2022-09-15T02:35:23.149Z,50.866642
2022-09-15T02:36:22.486Z,50.866581
2022-09-15T02:37:22.474Z,50.866604
2022-09-15T02:38:22.465Z,50.866661
2022-09-15T02:39:22.451Z,50.866825
2022-09-15T02:40:22.502Z,50.866837
2022-09-15T02:41:22.431Z,50.866829
2022-09-15T02:42:22.430Z,50.866756
2022-09-15T02:43:22.415Z,50.866837
2022-09-15T02:44:22.406Z,50.866764
2022-09-15T02:45:22.462Z,50.866657
2022-09-15T02:46:22.401Z,50.866684
2022-09-15T02:47:22.396Z,50.866688
2022-09-15T02:48:22.376Z,50.866650
2022-09-15T02:49:22.369Z,50.866768
2022-09-15T02:50:22.374Z,50.866745
2022-09-15T02:51:23.078Z,50.866768
2022-09-15T02:52:23.076Z,50.866737
2022-09-15T02:53:22.672Z,50.866882
2022-09-15T02:54:22.331Z,50.866879
2022-09-15T02:55:22.325Z,50.866840
2022-09-15T02:56:22.322Z,50.866779
2022-09-15T02:57:22.308Z,50.866779
2022-09-15T02:58:22.295Z,50.866875
2022-09-15T02:59:22.308Z,50.867020
2022-09-15T03:00:22.285Z,50.867245
2022-09-15T03:01:22.346Z,50.867420
2022-09-15T03:02:22.307Z,50.867252
2022-09-15T03:03:22.259Z,50.867405
2022-09-15T03:04:22.252Z,50.867477
2022-09-15T03:05:22.255Z,50.867168
2022-09-15T03:06:22.242Z,50.866974
2022-09-15T03:07:22.236Z,50.866829
2022-09-15T03:08:22.217Z,50.866856
2022-09-15T03:09:22.245Z,50.866875
2022-09-15T03:10:22.209Z,50.866982
2022-09-15T03:11:22.197Z,50.866997
2022-09-15T03:12:22.190Z,50.867031
2022-09-15T03:13:22.184Z,50.866993
2022-09-15T03:14:22.185Z,50.867062
2022-09-15T03:15:22.167Z,50.867290
2022-09-15T03:16:22.211Z,50.867290
2022-09-15T03:17:23.165Z,50.866894
2022-09-15T03:18:22.244Z,50.866894
2022-09-15T03:19:22.144Z,50.867043
2022-09-15T03:20:22.136Z,50.867043
2022-09-15T03:21:22.134Z,50.867096
2022-09-15T03:22:22.119Z,50.867237
2022-09-15T03:23:23.088Z,50.867287
2022-09-15T03:24:22.108Z,50.867184
2022-09-15T03:25:22.095Z,50.867271
2022-09-15T03:26:22.085Z,50.867313
2022-09-15T03:27:22.077Z,50.867386
2022-09-15T03:28:22.080Z,50.867409
2022-09-15T03:29:22.064Z,50.866959
2022-09-15T03:30:22.090Z,50.866848
2022-09-15T03:31:22.094Z,50.866783
2022-09-15T03:32:22.037Z,50.866798
2022-09-15T03:33:22.058Z,50.866722
2022-09-15T03:34:22.018Z,50.866722
2022-09-15T03:35:22.018Z,50.866703
2022-09-15T03:36:22.001Z,50.866650
2022-09-15T03:37:22.001Z,50.866695
2022-09-15T03:38:22.062Z,50.866695
2022-09-15T03:39:21.979Z,50.866661
2022-09-15T03:40:22.080Z,50.866695
2022-09-15T03:41:21.965Z,50.866684
2022-09-15T03:42:21.962Z,50.866699
2022-09-15T03:43:21.954Z,50.866726
2022-09-15T03:44:21.940Z,50.866707
2022-09-15T03:45:21.938Z,50.866714
2022-09-15T03:46:21.925Z,50.866756
2022-09-15T03:47:21.929Z,50.866703
2022-09-15T03:48:21.912Z,50.866711
2022-09-15T03:49:21.906Z,50.866688
2022-09-15T03:50:21.891Z,50.866657
2022-09-15T03:51:21.887Z,50.866745
2022-09-15T03:52:21.875Z,50.866791
2022-09-15T03:53:21.875Z,50.866730
2022-09-15T03:54:21.867Z,50.866703
2022-09-15T03:55:21.849Z,50.866657
2022-09-15T03:56:21.849Z,50.866581
2022-09-15T03:57:21.836Z,50.866615
2022-09-15T03:58:21.828Z,50.866611
2022-09-15T03:59:21.823Z,50.866619
2022-09-15T04:00:21.813Z,50.866589
2022-09-15T04:01:21.920Z,50.866638
2022-09-15T04:02:21.860Z,50.866669
2022-09-15T04:03:21.797Z,50.866661
2022-09-15T04:04:21.783Z,50.866711
2022-09-15T04:05:21.778Z,50.866673
2022-09-15T04:06:21.764Z,50.866665
2022-09-15T04:07:21.758Z,50.866573
2022-09-15T04:08:21.750Z,50.866547
2022-09-15T04:09:21.736Z,50.866520
2022-09-15T04:10:21.728Z,50.866470
2022-09-15T04:11:21.719Z,50.866524
2022-09-15T04:12:21.719Z,50.866581
2022-09-15T04:13:25.507Z,50.866646
2022-09-15T04:14:22.703Z,50.866737
2022-09-15T04:15:21.688Z,50.866772
2022-09-15T04:16:21.711Z,50.866737
2022-09-15T04:17:21.670Z,50.866707
2022-09-15T04:18:21.663Z,50.866737
2022-09-15T04:19:21.660Z,50.866688
2022-09-15T04:20:21.647Z,50.866680
2022-09-15T04:21:21.645Z,50.866703
2022-09-15T04:22:21.631Z,50.866722
2022-09-15T04:23:21.627Z,50.866692
2022-09-15T04:24:21.618Z,50.866722
2022-09-15T04:25:21.611Z,50.866688
2022-09-15T04:26:21.613Z,50.866688
2022-09-15T04:27:21.594Z,50.866684
2022-09-15T04:28:21.592Z,50.866676
2022-09-15T04:29:21.594Z,50.866684
2022-09-15T04:30:21.571Z,50.866650
2022-09-15T04:31:21.660Z,50.866631
2022-09-15T04:32:21.555Z,50.866642
2022-09-15T04:33:21.554Z,50.866653
2022-09-15T04:34:21.536Z,50.866516
2022-09-15T04:35:21.560Z,50.866470
2022-09-15T04:36:21.518Z,50.866550
2022-09-15T04:37:21.529Z,50.866528
2022-09-15T04:38:21.516Z,50.866558
2022-09-15T04:39:21.510Z,50.866478
2022-09-15T04:40:21.565Z,50.866463
2022-09-15T04:41:21.483Z,50.866474
2022-09-15T04:42:21.478Z,50.866425
2022-09-15T04:43:21.474Z,50.866402
2022-09-15T04:44:21.480Z,50.866474
2022-09-15T04:45:21.459Z,50.866524
2022-09-15T04:46:21.472Z,50.866463
2022-09-15T04:47:21.449Z,50.866413
2022-09-15T04:48:21.474Z,50.866379
2022-09-15T04:49:21.445Z,50.866486
2022-09-15T04:50:21.411Z,50.866566
2022-09-15T04:51:21.417Z,50.866535
2022-09-15T04:52:21.396Z,50.866543
2022-09-15T04:53:21.414Z,50.866642
2022-09-15T04:54:21.399Z,50.866631
2022-09-15T04:55:21.382Z,50.866543
2022-09-15T04:56:21.368Z,50.866570
2022-09-15T04:57:21.351Z,50.866455
2022-09-15T04:58:21.368Z,50.866383
2022-09-15T04:59:21.335Z,50.866398
2022-09-15T05:00:21.335Z,50.866352
2022-09-15T05:01:21.371Z,50.866409
2022-09-15T05:02:21.376Z,50.866459
2022-09-15T05:03:21.343Z,50.866402
2022-09-15T05:04:21.343Z,50.866444
2022-09-15T05:05:22.299Z,50.866451
2022-09-15T05:06:21.312Z,50.866516
2022-09-15T05:07:21.290Z,50.866413
2022-09-15T05:08:21.269Z,50.866669
2022-09-15T05:09:21.269Z,50.866703
2022-09-15T05:10:21.253Z,50.866695
2022-09-15T05:11:21.247Z,50.866867
2022-09-15T05:12:22.202Z,50.866844
2022-09-15T05:13:21.231Z,50.866665
2022-09-15T05:14:21.264Z,50.866653
2022-09-15T05:15:21.203Z,50.866844
2022-09-15T05:16:21.254Z,50.866924
2022-09-15T05:17:24.079Z,50.866947
2022-09-15T05:18:22.189Z,50.866699
2022-09-15T05:19:21.187Z,50.866756
2022-09-15T05:20:21.172Z,50.866745
2022-09-15T05:21:21.162Z,50.866760
2022-09-15T05:22:21.152Z,50.866764
2022-09-15T05:23:21.143Z,50.866718
2022-09-15T05:24:21.143Z,50.866734
2022-09-15T05:25:21.163Z,50.866714
2022-09-15T05:26:21.128Z,50.866722
2022-09-15T05:27:21.118Z,50.866737
2022-09-15T05:28:21.113Z,50.866726
2022-09-15T05:29:21.111Z,50.866726
2022-09-15T05:30:37.646Z,50.866703
2022-09-15T05:31:23.181Z,50.866741
2022-09-15T05:32:21.088Z,50.866791
2022-09-15T05:33:21.067Z,50.866810
2022-09-15T05:34:21.067Z,50.866680
2022-09-15T05:35:21.052Z,50.866814
2022-09-15T05:36:21.049Z,50.866947
2022-09-15T05:37:21.037Z,50.866886
2022-09-15T05:38:22.636Z,50.866829
2022-09-15T05:39:21.023Z,50.866783
2022-09-15T05:40:21.179Z,50.866779
2022-09-15T05:41:21.010Z,50.866722
2022-09-15T05:42:21.015Z,50.866714
2022-09-15T05:43:20.985Z,50.866714
2022-09-15T05:44:21.707Z,50.866730
2022-09-15T05:45:21.118Z,50.866653
2022-09-15T05:46:21.166Z,50.866695
2022-09-15T05:47:20.985Z,50.866741
2022-09-15T05:48:20.968Z,50.866756
2022-09-15T05:49:20.938Z,50.866768
2022-09-15T05:50:20.940Z,50.866707
2022-09-15T05:51:20.925Z,50.866760
2022-09-15T05:52:21.709Z,50.866783
2022-09-15T05:53:21.714Z,50.866764
2022-09-15T05:54:20.902Z,50.866638
2022-09-15T05:55:20.900Z,50.866646
2022-09-15T05:56:20.883Z,50.866737
2022-09-15T05:57:20.881Z,50.866676
2022-09-15T05:58:20.868Z,50.866661
2022-09-15T05:59:20.877Z,50.866688
2022-09-15T06:00:20.855Z,50.866608
2022-09-15T06:01:21.803Z,50.866661
2022-09-15T06:02:20.916Z,50.866722
2022-09-15T06:03:20.861Z,50.866753
2022-09-15T06:04:20.902Z,50.866707
2022-09-15T06:05:20.814Z,50.866722
2022-09-15T06:06:21.988Z,50.866737
2022-09-15T06:07:21.819Z,50.866760
2022-09-15T06:08:21.642Z,50.866776
2022-09-15T06:09:20.815Z,50.866798
2022-09-15T06:10:20.779Z,50.866829
2022-09-15T06:11:53.184Z,50.866840
2022-09-15T06:12:20.761Z,50.866852
2022-09-15T06:13:20.754Z,50.866749
2022-09-15T06:14:25.169Z,50.866772
2022-09-15T06:15:20.839Z,50.866760
2022-09-15T06:16:54.233Z,50.866764
2022-09-15T06:17:20.748Z,50.866768
2022-09-15T06:18:20.716Z,50.866749
2022-09-15T06:19:20.708Z,50.866737
2022-09-15T06:20:20.697Z,50.866718
2022-09-15T06:21:20.738Z,50.866684
2022-09-15T06:22:20.695Z,50.866737
2022-09-15T06:23:20.678Z,50.866833
2022-09-15T06:24:20.663Z,50.866817
2022-09-15T06:25:20.660Z,50.866791
2022-09-15T06:26:20.656Z,50.866646
2022-09-15T06:27:20.648Z,50.866611
2022-09-15T06:28:20.634Z,50.866516
2022-09-15T06:29:20.636Z,50.866554
2022-09-15T06:30:20.625Z,50.866585
2022-09-15T06:31:20.661Z,50.866577
2022-09-15T06:32:20.610Z,50.866619
2022-09-15T06:33:20.595Z,50.866653
2022-09-15T06:34:20.592Z,50.866646
2022-09-15T06:35:20.588Z,50.866695
2022-09-15T06:36:20.562Z,50.866787
2022-09-15T06:37:20.556Z,50.867035
2022-09-15T06:38:20.563Z,50.866936
2022-09-15T06:39:20.558Z,50.867085
2022-09-15T06:40:20.579Z,50.867382
2022-09-15T06:41:20.527Z,50.867638
2022-09-15T06:42:20.520Z,50.867847
2022-09-15T06:43:20.556Z,50.867573
2022-09-15T06:44:20.513Z,50.867672
2022-09-15T06:45:20.528Z,50.867420
2022-09-15T06:46:20.612Z,50.867275
2022-09-15T06:47:20.487Z,50.867325
2022-09-15T06:48:24.929Z,50.866753
2022-09-15T06:49:21.473Z,50.866768
2022-09-15T06:50:20.487Z,50.866798
2022-09-15T06:51:20.458Z,50.866707
2022-09-15T06:52:20.445Z,50.866863
2022-09-15T06:53:20.460Z,50.866825
2022-09-15T06:54:20.425Z,50.866787
2022-09-15T06:55:20.433Z,50.866833
2022-09-15T06:56:20.428Z,50.866776
2022-09-15T06:57:20.401Z,50.866795
2022-09-15T06:58:20.398Z,50.866726
2022-09-15T06:59:20.384Z,50.866737
2022-09-15T07:00:20.396Z,50.866997
2022-09-15T07:01:21.214Z,50.867229
2022-09-15T07:02:20.470Z,50.867180
2022-09-15T07:03:21.330Z,50.867001
2022-09-15T07:04:20.346Z,50.867020
2022-09-15T07:05:20.354Z,50.867153
2022-09-15T07:06:20.333Z,50.867065
2022-09-15T07:07:20.318Z,50.867085
2022-09-15T07:08:20.311Z,50.866703
2022-09-15T07:09:20.304Z,50.866749
2022-09-15T07:10:20.352Z,50.866703
2022-09-15T07:11:20.291Z,50.866756
2022-09-15T07:12:20.278Z,50.866833
2022-09-15T07:13:20.272Z,50.866776
2022-09-15T07:14:20.285Z,50.866806
2022-09-15T07:15:20.255Z,50.866833
2022-09-15T07:16:20.310Z,50.866806
2022-09-15T07:17:20.236Z,50.866802
2022-09-15T07:18:20.282Z,50.866825
2022-09-15T07:19:20.221Z,50.866768
2022-09-15T07:20:20.214Z,50.866749
2022-09-15T07:21:20.255Z,50.866783
2022-09-15T07:22:20.207Z,50.866867
2022-09-15T07:23:20.234Z,50.866760
2022-09-15T07:24:20.188Z,50.866741
2022-09-15T07:25:20.176Z,50.866707
2022-09-15T07:26:20.170Z,50.866680
2022-09-15T07:27:20.161Z,50.866573
2022-09-15T07:28:20.833Z,50.866680
2022-09-15T07:29:21.153Z,50.866692
2022-09-15T07:30:20.142Z,50.866737
2022-09-15T07:31:20.179Z,50.866749
2022-09-15T07:32:20.121Z,50.866806
2022-09-15T07:33:20.142Z,50.866787
2022-09-15T07:34:20.117Z,50.866821
2022-09-15T07:35:20.098Z,50.866810
2022-09-15T07:36:20.114Z,50.866756
2022-09-15T07:37:20.089Z,50.866749
2022-09-15T07:38:20.084Z,50.866795
2022-09-15T07:39:20.081Z,50.866745
2022-09-15T07:40:20.111Z,50.866829
2022-09-15T07:41:20.048Z,50.866787
2022-09-15T07:42:20.084Z,50.866756
2022-09-15T07:43:20.036Z,50.866795
2022-09-15T07:44:20.025Z,50.866825
2022-09-15T07:45:20.778Z,50.866863
2022-09-15T07:46:20.012Z,50.866844
2022-09-15T07:47:20.333Z,50.866833
2022-09-15T07:48:23.249Z,50.866798
2022-09-15T07:49:21.986Z,50.866791
2022-09-15T07:50:19.990Z,50.866760
2022-09-15T07:51:19.994Z,50.866802
2022-09-15T07:52:19.984Z,50.866798
2022-09-15T07:53:19.974Z,50.866779
2022-09-15T07:54:23.084Z,50.866730
2022-09-15T07:55:20.939Z,50.866795
2022-09-15T07:56:19.949Z,50.866806
2022-09-15T07:57:19.967Z,50.866810
2022-09-15T07:58:19.926Z,50.866810
2022-09-15T07:59:19.916Z,50.866821
2022-09-15T08:00:19.908Z,50.866768
2022-09-15T08:01:19.991Z,50.866730
2022-09-15T08:02:19.959Z,50.866760
2022-09-15T08:03:19.877Z,50.866779
2022-09-15T08:04:19.887Z,50.866810
2022-09-15T08:05:20.815Z,50.866833
2022-09-15T08:06:19.862Z,50.866932
2022-09-15T08:07:19.855Z,50.866863
2022-09-15T08:08:19.841Z,50.866844
2022-09-15T08:09:19.844Z,50.866787
2022-09-15T08:10:19.825Z,50.866814
2022-09-15T08:11:19.812Z,50.866821
2022-09-15T08:12:19.892Z,50.866821
2022-09-15T08:13:19.799Z,50.866817
2022-09-15T08:14:19.797Z,50.866768
2022-09-15T08:15:19.766Z,50.866718
2022-09-15T08:16:20.858Z,50.866592
2022-09-15T08:17:19.765Z,50.866550
2022-09-15T08:18:19.754Z,50.866402
2022-09-15T08:19:19.750Z,50.866367
2022-09-15T08:20:19.748Z,50.866463
2022-09-15T08:21:19.734Z,50.866474
2022-09-15T08:22:19.768Z,50.866413
2022-09-15T08:23:19.729Z,50.866211
2022-09-15T08:24:19.734Z,50.866379
2022-09-15T08:25:19.737Z,50.866386
2022-09-15T08:26:19.698Z,50.866428
2022-09-15T08:27:19.681Z,50.866436
2022-09-15T08:28:19.682Z,50.866436
2022-09-15T08:29:19.660Z,50.866428
2022-09-15T08:30:19.672Z,50.866703
2022-09-15T08:31:19.735Z,50.866756
2022-09-15T08:32:19.645Z,50.866760
2022-09-15T08:33:19.640Z,50.866772
2022-09-15T08:34:19.633Z,50.866783
2022-09-15T08:35:19.630Z,50.866688
2022-09-15T08:36:19.625Z,50.866741
2022-09-15T08:37:19.606Z,50.866703
2022-09-15T08:38:19.646Z,50.866734
2022-09-15T08:39:20.358Z,50.866684
2022-09-15T08:40:19.833Z,50.866684
2022-09-15T08:41:21.415Z,50.866634
2022-09-15T08:42:19.707Z,50.866753
2022-09-15T08:43:20.224Z,50.866745
2022-09-15T08:44:19.547Z,50.866646
2022-09-15T08:45:19.557Z,50.866558
2022-09-15T08:46:19.614Z,50.866573
2022-09-15T08:47:20.289Z,50.866615
2022-09-15T08:48:19.537Z,50.866653
2022-09-15T08:49:30.792Z,50.866661
2022-09-15T08:50:21.499Z,50.866646
2022-09-15T08:51:19.492Z,50.866676
2022-09-15T08:52:19.500Z,50.866734
2022-09-15T08:53:19.489Z,50.866577
2022-09-15T08:54:19.468Z,50.866570
2022-09-15T08:55:19.459Z,50.866695
2022-09-15T08:56:19.466Z,50.866657
2022-09-15T08:57:19.476Z,50.866833
2022-09-15T08:58:19.456Z,50.866764
2022-09-15T08:59:19.457Z,50.866787
2022-09-15T09:00:52.770Z,50.866837
2022-09-15T09:01:19.503Z,50.866768
2022-09-15T09:02:19.433Z,50.866703
2022-09-15T09:03:19.382Z,50.866768
2022-09-15T09:11:39.322Z,50.865967
2022-09-15T09:12:39.334Z,50.866077
2022-09-15T09:13:39.298Z,50.866047
2022-09-15T09:14:39.294Z,50.866325
2022-09-15T09:15:39.354Z,50.866470
2022-09-15T09:16:40.268Z,50.866512
2022-09-15T09:17:39.259Z,50.866531
2022-09-15T09:18:40.205Z,50.866718
2022-09-15T09:19:40.258Z,50.866756
2022-09-15T09:20:39.254Z,50.866783
2022-09-15T09:21:39.270Z,50.866783
2022-09-15T09:22:39.236Z,50.866764
2022-09-15T09:23:39.232Z,50.866718
2022-09-15T09:24:39.204Z,50.866779
2022-09-15T09:25:39.199Z,50.866760
2022-09-15T09:26:39.189Z,50.866714
2022-09-15T09:27:39.192Z,50.866653
2022-09-15T09:28:39.188Z,50.866585
2022-09-15T09:29:39.208Z,50.866817
2022-09-15T09:30:40.187Z,50.866879
2022-09-15T09:31:39.165Z,50.866844
2022-09-15T09:32:39.149Z,50.866779
2022-09-15T09:33:41.780Z,50.866760
2022-09-15T09:34:39.131Z,50.866646
2022-09-15T09:35:39.118Z,50.866707
2022-09-15T09:36:39.114Z,50.866810
2022-09-15T09:37:39.116Z,50.866829
2022-09-15T09:38:39.120Z,50.866802
2022-09-15T09:39:39.094Z,50.866779
2022-09-15T09:40:39.187Z,50.866756
2022-09-15T09:41:39.087Z,50.866760
2022-09-15T09:42:39.065Z,50.866756
2022-09-15T09:43:39.061Z,50.866749
2022-09-15T09:44:39.068Z,50.866741
2022-09-15T09:45:39.090Z,50.866730
2022-09-15T09:46:39.101Z,50.866760
2022-09-15T09:47:39.026Z,50.866707
2022-09-15T09:48:39.028Z,50.866722
2022-09-15T09:49:39.025Z,50.866703
2022-09-15T09:50:39.065Z,50.866753
2022-09-15T09:51:39.006Z,50.866745
2022-09-15T09:52:38.999Z,50.866814
2022-09-15T09:53:38.999Z,50.866756
2022-09-15T09:54:38.979Z,50.866776
2022-09-15T09:55:38.994Z,50.866776
2022-09-15T09:56:38.968Z,50.866734
2022-09-15T09:57:40.800Z,50.866741
2022-09-15T09:58:40.639Z,50.866772
2022-09-15T09:59:38.937Z,50.866726
2022-09-15T10:00:38.940Z,50.866776
2022-09-15T10:01:38.984Z,50.866707
2022-09-15T10:02:38.911Z,50.866661
2022-09-15T10:03:38.901Z,50.866577
2022-09-15T10:04:39.956Z,50.866707
2022-09-15T10:05:39.653Z,50.866737
2022-09-15T10:06:38.884Z,50.866673
2022-09-15T10:07:38.890Z,50.866695
2022-09-15T10:08:38.871Z,50.866714
2022-09-15T10:09:38.869Z,50.866661
2022-09-15T10:10:38.854Z,50.866684
2022-09-15T10:11:38.839Z,50.866718
2022-09-15T10:12:38.829Z,50.866684
2022-09-15T10:13:38.820Z,50.866703
2022-09-15T10:14:38.819Z,50.866779
2022-09-15T10:15:39.725Z,50.866695
2022-09-15T10:16:39.241Z,50.866692
2022-09-15T10:17:38.809Z,50.866817
2022-09-15T10:18:38.781Z,50.866825
2022-09-15T10:19:38.788Z,50.866791
2022-09-15T10:20:38.768Z,50.866699
2022-09-15T10:21:38.767Z,50.866756
2022-09-15T10:22:38.748Z,50.866814
2022-09-15T10:23:38.753Z,50.866680
2022-09-15T10:24:38.729Z,50.866646
2022-09-15T10:25:57.964Z,50.866684
2022-09-15T10:26:40.730Z,50.866734
2022-09-15T10:27:38.719Z,50.866821
2022-09-15T10:28:38.704Z,50.866810
2022-09-15T10:29:38.735Z,50.866787
2022-09-15T10:30:38.706Z,50.866802
2022-09-15T10:31:38.714Z,50.866589
2022-09-15T10:32:40.302Z,50.866959
2022-09-15T10:33:38.670Z,50.866817
2022-09-15T10:34:38.653Z,50.866920
2022-09-15T10:35:38.648Z,50.866867
2022-09-15T10:36:38.638Z,50.866924
2022-09-15T10:37:38.647Z,50.866924
2022-09-15T10:38:38.627Z,50.867008
2022-09-15T10:39:38.626Z,50.867035
2022-09-15T10:40:38.607Z,50.867157
2022-09-15T10:41:38.615Z,50.867046
2022-09-15T10:42:38.602Z,50.866928
2022-09-15T10:43:38.588Z,50.866871
2022-09-15T10:44:38.578Z,50.866920
2022-09-15T10:45:38.624Z,50.866966
2022-09-15T10:46:39.499Z,50.867016
2022-09-15T10:47:39.574Z,50.866753
2022-09-15T10:48:38.569Z,50.866638
2022-09-15T10:49:38.554Z,50.866665
2022-09-15T10:50:38.539Z,50.866680
2022-09-15T10:51:38.540Z,50.866692
2022-09-15T10:52:38.505Z,50.866646
2022-09-15T10:53:38.511Z,50.866802
2022-09-15T10:54:38.489Z,50.867023
2022-09-15T10:55:52.435Z,50.866848
2022-09-15T10:56:40.599Z,50.866817
2022-09-15T10:57:38.499Z,50.866673
2022-09-15T10:58:40.954Z,50.866714
2022-09-15T10:59:39.489Z,50.866680
2022-09-15T11:00:38.469Z,50.866718
2022-09-15T11:01:39.292Z,50.866718
2022-09-15T11:02:38.428Z,50.866810
2022-09-15T11:03:39.178Z,50.866764
2022-09-15T11:04:38.420Z,50.866615
2022-09-15T11:05:38.409Z,50.866562
2022-09-15T11:06:38.400Z,50.866566
2022-09-15T11:07:38.391Z,50.866528
2022-09-15T11:08:38.387Z,50.866562
2022-09-15T11:09:38.377Z,50.866516
2022-09-15T11:10:38.368Z,50.866425
2022-09-15T11:11:38.358Z,50.866341
2022-09-15T11:12:38.348Z,50.866478
2022-09-15T11:13:38.349Z,50.866573
2022-09-15T11:14:38.335Z,50.866554
2022-09-15T11:15:38.326Z,50.866493
2022-09-15T11:16:38.388Z,50.866455
2022-09-15T11:17:38.315Z,50.866505
2022-09-15T11:18:38.311Z,50.866592
2022-09-15T11:20:10.723Z,50.866489
2022-09-15T11:20:38.292Z,50.866325
2022-09-15T11:21:38.298Z,50.865971
2022-09-15T11:22:38.298Z,50.866116
2022-09-15T11:23:38.304Z,50.866386
2022-09-15T11:24:38.333Z,50.866489
2022-09-15T11:25:38.276Z,50.866711
2022-09-15T11:26:38.233Z,50.866703
2022-09-15T11:46:46.557Z,50.866611
2022-09-15T11:47:46.523Z,50.866611
2022-09-15T11:48:46.488Z,50.866665
2022-09-15T11:49:46.469Z,50.866699
2022-09-15T11:50:46.460Z,50.866711
2022-09-15T11:51:46.458Z,50.866734
2022-09-15T11:52:46.448Z,50.866718
2022-09-15T11:53:46.453Z,50.866745
2022-09-15T11:54:46.440Z,50.866737
2022-09-15T11:55:46.914Z,50.866756